Aviation Digital Data Service (ADDS)

Output produced by METARs form (0419 UTC 19 February 2019)
found at http://www.aviationweather.gov/metar/data/
 
METAR text: VVNB 190400Z 12006KT 090V160 7000 BKN020 26/20 Q1014 NOSIG
Conditions at: VVNB (HANOI/NOIBAI INT, VN) observed 0400 UTC 19 February 2019
Temperature: 26.0°C (79°F)
Dewpoint: 20.0°C (68°F) [RH = 70%]
Pressure (altimeter): 29.94 inches Hg (1014.0 mb)
Winds: from the ESE (120 degrees) at 7 MPH (6 knots; 3.1 m/s)
Visibility: 4 miles ( 7 km)
Ceiling: 2000 feet AGL
Clouds: broken clouds at 2000 feet AGL
Weather: no significant weather observed at this time

METAR text: VVNB 190330Z 13008KT 8000 FEW017 BKN021 25/19 Q1014 NOSIG
Conditions at: VVNB (HANOI/NOIBAI INT, VN) observed 0330 UTC 19 February 2019
Temperature: 25.0°C (77°F)
Dewpoint: 19.0°C (66°F) [RH = 69%]
Pressure (altimeter): 29.94 inches Hg (1014.0 mb)
Winds: from the SE (130 degrees) at 9 MPH (8 knots; 4.1 m/s)
Visibility: 5 miles ( 8 km)
Ceiling: 2100 feet AGL
Clouds: few clouds at 1700 feet AGL
broken clouds at 2100 feet AGL
Weather: no significant weather observed at this time

METAR text: VVNB 190300Z 14009KT 9000 FEW015 BKN022 25/20 Q1014 NOSIG
Conditions at: VVNB (HANOI/NOIBAI INT, VN) observed 0300 UTC 19 February 2019
Temperature: 25.0°C (77°F)
Dewpoint: 20.0°C (68°F) [RH = 74%]
Pressure (altimeter): 29.94 inches Hg (1014.0 mb)
Winds: from the SE (140 degrees) at 10 MPH (9 knots; 4.6 m/s)
Visibility: 6 miles ( 9 km)
Ceiling: 2200 feet AGL
Clouds: few clouds at 1500 feet AGL
broken clouds at 2200 feet AGL
Weather: no significant weather observed at this time

METAR text: VVNB 190230Z 13008KT 7000 FEW012 BKN023 24/21 Q1014 NOSIG
Conditions at: VVNB (HANOI/NOIBAI INT, VN) observed 0230 UTC 19 February 2019
Temperature: 24.0°C (75°F)
Dewpoint: 21.0°C (70°F) [RH = 83%]
Pressure (altimeter): 29.94 inches Hg (1014.0 mb)
Winds: from the SE (130 degrees) at 9 MPH (8 knots; 4.1 m/s)
Visibility: 4 miles ( 7 km)
Ceiling: 2300 feet AGL
Clouds: few clouds at 1200 feet AGL
broken clouds at 2300 feet AGL
Weather: no significant weather observed at this time

METAR text: VVNB 190200Z 13009KT 7000 FEW010 BKN024 24/23 Q1014 NOSIG
Conditions at: VVNB (HANOI/NOIBAI INT, VN) observed 0200 UTC 19 February 2019
Temperature: 24.0°C (75°F)
Dewpoint: 23.0°C (73°F) [RH = 94%]
Pressure (altimeter): 29.94 inches Hg (1014.0 mb)
Winds: from the SE (130 degrees) at 10 MPH (9 knots; 4.6 m/s)
Visibility: 4 miles ( 7 km)
Ceiling: 2400 feet AGL
Clouds: few clouds at 1000 feet AGL
broken clouds at 2400 feet AGL
Weather: no significant weather observed at this time

METAR text: VVNB 190130Z 11007KT 6000 FEW010 BKN023 24/23 Q1013 NOSIG
Conditions at: VVNB (HANOI/NOIBAI INT, VN) observed 0130 UTC 19 February 2019
Temperature: 24.0°C (75°F)
Dewpoint: 23.0°C (73°F) [RH = 94%]
Pressure (altimeter): 29.91 inches Hg (1013.0 mb)
Winds: from the ESE (110 degrees) at 8 MPH (7 knots; 3.6 m/s)
Visibility: 4 miles ( 6 km)
Ceiling: 2300 feet AGL
Clouds: few clouds at 1000 feet AGL
broken clouds at 2300 feet AGL
Weather: no significant weather observed at this time

METAR text: VVNB 190100Z 10006KT 6000 FEW010 BKN022 23/23 Q1013 NOSIG
Conditions at: VVNB (HANOI/NOIBAI INT, VN) observed 0100 UTC 19 February 2019
Temperature: 23.0°C (73°F)
Dewpoint: 23.0°C (73°F) [RH = 100%]
Pressure (altimeter): 29.91 inches Hg (1013.0 mb)
Winds: from the E (100 degrees) at 7 MPH (6 knots; 3.1 m/s)
Visibility: 4 miles ( 6 km)
Ceiling: 2200 feet AGL
Clouds: few clouds at 1000 feet AGL
broken clouds at 2200 feet AGL
Weather: no significant weather observed at this time

METAR text: VVNB 190030Z 10007KT 5000 BR BKN019 23/23 Q1012 NOSIG
Conditions at: VVNB (HANOI/NOIBAI INT, VN) observed 0030 UTC 19 February 2019
Temperature: 23.0°C (73°F)
Dewpoint: 23.0°C (73°F) [RH = 100%]
Pressure (altimeter): 29.88 inches Hg (1012.0 mb)
Winds: from the E (100 degrees) at 8 MPH (7 knots; 3.6 m/s)
Visibility: 3 miles ( 5 km)
Ceiling: 1900 feet AGL
Clouds: broken clouds at 1900 feet AGL
Weather: BR  (mist)

METAR text: VVNB 190000Z 10006KT 4900 BR BKN017 23/23 Q1012 NOSIG
Conditions at: VVNB (HANOI/NOIBAI INT, VN) observed 0000 UTC 19 February 2019
Temperature: 23.0°C (73°F)
Dewpoint: 23.0°C (73°F) [RH = 100%]
Pressure (altimeter): 29.88 inches Hg (1012.0 mb)
Winds: from the E (100 degrees) at 7 MPH (6 knots; 3.1 m/s)
Visibility: 3 miles ( 5 km)
Ceiling: 1700 feet AGL
Clouds: broken clouds at 1700 feet AGL
Weather: BR  (mist)

METAR text: VVNB 182330Z 11007KT 6000 SCT009 BKN015 23/23 Q1012 NOSIG
Conditions at: VVNB (HANOI/NOIBAI INT, VN) observed 2330 UTC 18 February 2019
Temperature: 23.0°C (73°F)
Dewpoint: 23.0°C (73°F) [RH = 100%]
Pressure (altimeter): 29.88 inches Hg (1012.0 mb)
Winds: from the ESE (110 degrees) at 8 MPH (7 knots; 3.6 m/s)
Visibility: 4 miles ( 6 km)
Ceiling: 1500 feet AGL
Clouds: scattered clouds at 900 feet AGL
broken clouds at 1500 feet AGL
Weather: no significant weather observed at this time

METAR text: VVNB 182300Z 12008KT 6000 SCT009 BKN015 23/23 Q1011 NOSIG
Conditions at: VVNB (HANOI/NOIBAI INT, VN) observed 2300 UTC 18 February 2019
Temperature: 23.0°C (73°F)
Dewpoint: 23.0°C (73°F) [RH = 100%]
Pressure (altimeter): 29.85 inches Hg (1011.0 mb)
Winds: from the ESE (120 degrees) at 9 MPH (8 knots; 4.1 m/s)
Visibility: 4 miles ( 6 km)
Ceiling: 1500 feet AGL
Clouds: scattered clouds at 900 feet AGL
broken clouds at 1500 feet AGL
Weather: no significant weather observed at this time

METAR text: VVNB 182230Z 13008KT 6000 SCT009 BKN015 23/23 Q1011 NOSIG
Conditions at: VVNB (HANOI/NOIBAI INT, VN) observed 2230 UTC 18 February 2019
Temperature: 23.0°C (73°F)
Dewpoint: 23.0°C (73°F) [RH = 100%]
Pressure (altimeter): 29.85 inches Hg (1011.0 mb)
Winds: from the SE (130 degrees) at 9 MPH (8 knots; 4.1 m/s)
Visibility: 4 miles ( 6 km)
Ceiling: 1500 feet AGL
Clouds: scattered clouds at 900 feet AGL
broken clouds at 1500 feet AGL
Weather: no significant weather observed at this time

METAR text: VVNB 182200Z 11006KT 6000 SCT009 BKN015 23/23 Q1010 NOSIG
Conditions at: VVNB (HANOI/NOIBAI INT, VN) observed 2200 UTC 18 February 2019
Temperature: 23.0°C (73°F)
Dewpoint: 23.0°C (73°F) [RH = 100%]
Pressure (altimeter): 29.82 inches Hg (1010.0 mb)
Winds: from the ESE (110 degrees) at 7 MPH (6 knots; 3.1 m/s)
Visibility: 4 miles ( 6 km)
Ceiling: 1500 feet AGL
Clouds: scattered clouds at 900 feet AGL
broken clouds at 1500 feet AGL
Weather: no significant weather observed at this time

METAR text: VVNB 182130Z 10007KT 6000 SCT009 BKN015 23/23 Q1010 NOSIG
Conditions at: VVNB (HANOI/NOIBAI INT, VN) observed 2130 UTC 18 February 2019
Temperature: 23.0°C (73°F)
Dewpoint: 23.0°C (73°F) [RH = 100%]
Pressure (altimeter): 29.82 inches Hg (1010.0 mb)
Winds: from the E (100 degrees) at 8 MPH (7 knots; 3.6 m/s)
Visibility: 4 miles ( 6 km)
Ceiling: 1500 feet AGL
Clouds: scattered clouds at 900 feet AGL
broken clouds at 1500 feet AGL
Weather: no significant weather observed at this time

METAR text: VVNB 182100Z 10007KT 6000 SCT009 BKN015 23/23 Q1010 NOSIG
Conditions at: VVNB (HANOI/NOIBAI INT, VN) observed 2100 UTC 18 February 2019
Temperature: 23.0°C (73°F)
Dewpoint: 23.0°C (73°F) [RH = 100%]
Pressure (altimeter): 29.82 inches Hg (1010.0 mb)
Winds: from the E (100 degrees) at 8 MPH (7 knots; 3.6 m/s)
Visibility: 4 miles ( 6 km)
Ceiling: 1500 feet AGL
Clouds: scattered clouds at 900 feet AGL
broken clouds at 1500 feet AGL
Weather: no significant weather observed at this time

METAR text: VVNB 182030Z 11007KT 7000 SCT009 BKN015 23/23 Q1010 NOSIG
Conditions at: VVNB (HANOI/NOIBAI INT, VN) observed 2030 UTC 18 February 2019
Temperature: 23.0°C (73°F)
Dewpoint: 23.0°C (73°F) [RH = 100%]
Pressure (altimeter): 29.82 inches Hg (1010.0 mb)
Winds: from the ESE (110 degrees) at 8 MPH (7 knots; 3.6 m/s)
Visibility: 4 miles ( 7 km)
Ceiling: 1500 feet AGL
Clouds: scattered clouds at 900 feet AGL
broken clouds at 1500 feet AGL
Weather: no significant weather observed at this time

METAR text: VVNB 182000Z 10006KT 6000 SCT009 BKN015 23/23 Q1010 NOSIG
Conditions at: VVNB (HANOI/NOIBAI INT, VN) observed 2000 UTC 18 February 2019
Temperature: 23.0°C (73°F)
Dewpoint: 23.0°C (73°F) [RH = 100%]
Pressure (altimeter): 29.82 inches Hg (1010.0 mb)
Winds: from the E (100 degrees) at 7 MPH (6 knots; 3.1 m/s)
Visibility: 4 miles ( 6 km)
Ceiling: 1500 feet AGL
Clouds: scattered clouds at 900 feet AGL
broken clouds at 1500 feet AGL
Weather: no significant weather observed at this time

METAR text: VVNB 181930Z 09006KT 3700 BR SCT009 BKN015 23/23 Q1010 NOSIG
Conditions at: VVNB (HANOI/NOIBAI INT, VN) observed 1930 UTC 18 February 2019
Temperature: 23.0°C (73°F)
Dewpoint: 23.0°C (73°F) [RH = 100%]
Pressure (altimeter): 29.82 inches Hg (1010.0 mb)
Winds: from the E (90 degrees) at 7 MPH (6 knots; 3.1 m/s)
Visibility: 2.30 miles (3.70 km)
Ceiling: 1500 feet AGL
Clouds: scattered clouds at 900 feet AGL
broken clouds at 1500 feet AGL
Weather: BR  (mist)

METAR text: VVNB 181900Z 10006KT 4200 BR SCT009 BKN015 23/23 Q1010 NOSIG
Conditions at: VVNB (HANOI/NOIBAI INT, VN) observed 1900 UTC 18 February 2019
Temperature: 23.0°C (73°F)
Dewpoint: 23.0°C (73°F) [RH = 100%]
Pressure (altimeter): 29.82 inches Hg (1010.0 mb)
Winds: from the E (100 degrees) at 7 MPH (6 knots; 3.1 m/s)
Visibility: 2.61 miles (4.20 km)
Ceiling: 1500 feet AGL
Clouds: scattered clouds at 900 feet AGL
broken clouds at 1500 feet AGL
Weather: BR  (mist)

METAR text: VVNB 181830Z 10006KT 5000 BR SCT010 BKN015 23/23 Q1010 NOSIG
Conditions at: VVNB (HANOI/NOIBAI INT, VN) observed 1830 UTC 18 February 2019
Temperature: 23.0°C (73°F)
Dewpoint: 23.0°C (73°F) [RH = 100%]
Pressure (altimeter): 29.82 inches Hg (1010.0 mb)
Winds: from the E (100 degrees) at 7 MPH (6 knots; 3.1 m/s)
Visibility: 3 miles ( 5 km)
Ceiling: 1500 feet AGL
Clouds: scattered clouds at 1000 feet AGL
broken clouds at 1500 feet AGL
Weather: BR  (mist)

METAR text: VVNB 181800Z 10007KT 5000 BR SCT010 BKN015 23/23 Q1011 NOSIG
Conditions at: VVNB (HANOI/NOIBAI INT, VN) observed 1800 UTC 18 February 2019
Temperature: 23.0°C (73°F)
Dewpoint: 23.0°C (73°F) [RH = 100%]
Pressure (altimeter): 29.85 inches Hg (1011.0 mb)
Winds: from the E (100 degrees) at 8 MPH (7 knots; 3.6 m/s)
Visibility: 3 miles ( 5 km)
Ceiling: 1500 feet AGL
Clouds: scattered clouds at 1000 feet AGL
broken clouds at 1500 feet AGL
Weather: BR  (mist)

METAR text: VVNB 181730Z 09007KT 6000 SCT010 BKN015 23/23 Q1011 NOSIG
Conditions at: VVNB (HANOI/NOIBAI INT, VN) observed 1730 UTC 18 February 2019
Temperature: 23.0°C (73°F)
Dewpoint: 23.0°C (73°F) [RH = 100%]
Pressure (altimeter): 29.85 inches Hg (1011.0 mb)
Winds: from the E (90 degrees) at 8 MPH (7 knots; 3.6 m/s)
Visibility: 4 miles ( 6 km)
Ceiling: 1500 feet AGL
Clouds: scattered clouds at 1000 feet AGL
broken clouds at 1500 feet AGL
Weather: no significant weather observed at this time

METAR text: VVNB 181700Z 09007KT 7000 SCT010 BKN017 23/23 Q1011 NOSIG
Conditions at: VVNB (HANOI/NOIBAI INT, VN) observed 1700 UTC 18 February 2019
Temperature: 23.0°C (73°F)
Dewpoint: 23.0°C (73°F) [RH = 100%]
Pressure (altimeter): 29.85 inches Hg (1011.0 mb)
Winds: from the E (90 degrees) at 8 MPH (7 knots; 3.6 m/s)
Visibility: 4 miles ( 7 km)
Ceiling: 1700 feet AGL
Clouds: scattered clouds at 1000 feet AGL
broken clouds at 1700 feet AGL
Weather: no significant weather observed at this time

METAR text: VVNB 181630Z 08006KT 8000 SCT010 BKN017 23/23 Q1011 NOSIG
Conditions at: VVNB (HANOI/NOIBAI INT, VN) observed 1630 UTC 18 February 2019
Temperature: 23.0°C (73°F)
Dewpoint: 23.0°C (73°F) [RH = 100%]
Pressure (altimeter): 29.85 inches Hg (1011.0 mb)
Winds: from the E (80 degrees) at 7 MPH (6 knots; 3.1 m/s)
Visibility: 5 miles ( 8 km)
Ceiling: 1700 feet AGL
Clouds: scattered clouds at 1000 feet AGL
broken clouds at 1700 feet AGL
Weather: no significant weather observed at this time

METAR text: VVNB 181600Z 12009KT 8000 SCT010 23/23 Q1011 NOSIG
Conditions at: VVNB (HANOI/NOIBAI INT, VN) observed 1600 UTC 18 February 2019
Temperature: 23.0°C (73°F)
Dewpoint: 23.0°C (73°F) [RH = 100%]
Pressure (altimeter): 29.85 inches Hg (1011.0 mb)
Winds: from the ESE (120 degrees) at 10 MPH (9 knots; 4.6 m/s)
Visibility: 5 miles ( 8 km)
Ceiling: at least 12,000 feet AGL
Clouds: scattered clouds at 1000 feet AGL
Weather: no significant weather observed at this time

METAR text: VVNB 181530Z 12009KT 9000 SCT010 23/22 Q1011 NOSIG
Conditions at: VVNB (HANOI/NOIBAI INT, VN) observed 1530 UTC 18 February 2019
Temperature: 23.0°C (73°F)
Dewpoint: 22.0°C (72°F) [RH = 94%]
Pressure (altimeter): 29.85 inches Hg (1011.0 mb)
Winds: from the ESE (120 degrees) at 10 MPH (9 knots; 4.6 m/s)
Visibility: 6 miles ( 9 km)
Ceiling: at least 12,000 feet AGL
Clouds: scattered clouds at 1000 feet AGL
Weather: no significant weather observed at this time

METAR text: VVNB 181500Z 11008KT 9000 SCT013 23/22 Q1011 NOSIG
Conditions at: VVNB (HANOI/NOIBAI INT, VN) observed 1500 UTC 18 February 2019
Temperature: 23.0°C (73°F)
Dewpoint: 22.0°C (72°F) [RH = 94%]
Pressure (altimeter): 29.85 inches Hg (1011.0 mb)
Winds: from the ESE (110 degrees) at 9 MPH (8 knots; 4.1 m/s)
Visibility: 6 miles ( 9 km)
Ceiling: at least 12,000 feet AGL
Clouds: scattered clouds at 1300 feet AGL
Weather: no significant weather observed at this time

METAR text: VVNB 181430Z 12010KT 9999 SCT013 23/21 Q1011 NOSIG
Conditions at: VVNB (HANOI/NOIBAI INT, VN) observed 1430 UTC 18 February 2019
Temperature: 23.0°C (73°F)
Dewpoint: 21.0°C (70°F) [RH = 89%]
Pressure (altimeter): 29.85 inches Hg (1011.0 mb)
Winds: from the ESE (120 degrees) at 12 MPH (10 knots; 5.1 m/s)
Visibility: 6 or more miles (10+ km)
Ceiling: at least 12,000 feet AGL
Clouds: scattered clouds at 1300 feet AGL
Weather: no significant weather observed at this time

METAR text: VVNB 181400Z 13008KT 9999 SCT013 23/21 Q1010 NOSIG
Conditions at: VVNB (HANOI/NOIBAI INT, VN) observed 1400 UTC 18 February 2019
Temperature: 23.0°C (73°F)
Dewpoint: 21.0°C (70°F) [RH = 89%]
Pressure (altimeter): 29.82 inches Hg (1010.0 mb)
Winds: from the SE (130 degrees) at 9 MPH (8 knots; 4.1 m/s)
Visibility: 6 or more miles (10+ km)
Ceiling: at least 12,000 feet AGL
Clouds: scattered clouds at 1300 feet AGL
Weather: no significant weather observed at this time

METAR text: VVNB 181330Z 12011KT 9999 SCT013 24/20 Q1010 NOSIG
Conditions at: VVNB (HANOI/NOIBAI INT, VN) observed 1330 UTC 18 February 2019
Temperature: 24.0°C (75°F)
Dewpoint: 20.0°C (68°F) [RH = 78%]
Pressure (altimeter): 29.82 inches Hg (1010.0 mb)
Winds: from the ESE (120 degrees) at 13 MPH (11 knots; 5.7 m/s)
Visibility: 6 or more miles (10+ km)
Ceiling: at least 12,000 feet AGL
Clouds: scattered clouds at 1300 feet AGL
Weather: no significant weather observed at this time

METAR text: VVNB 181300Z 14009KT 9000 SCT030 24/21 Q1009 NOSIG
Conditions at: VVNB (HANOI/NOIBAI INT, VN) observed 1300 UTC 18 February 2019
Temperature: 24.0°C (75°F)
Dewpoint: 21.0°C (70°F) [RH = 83%]
Pressure (altimeter): 29.79 inches Hg (1009.0 mb)
Winds: from the SE (140 degrees) at 10 MPH (9 knots; 4.6 m/s)
Visibility: 6 miles ( 9 km)
Ceiling: at least 12,000 feet AGL
Clouds: scattered clouds at 3000 feet AGL
Weather: no significant weather observed at this time

METAR text: VVNB 181230Z 12013KT 9000 SCT030 24/21 Q1009 NOSIG
Conditions at: VVNB (HANOI/NOIBAI INT, VN) observed 1230 UTC 18 February 2019
Temperature: 24.0°C (75°F)
Dewpoint: 21.0°C (70°F) [RH = 83%]
Pressure (altimeter): 29.79 inches Hg (1009.0 mb)
Winds: from the ESE (120 degrees) at 15 MPH (13 knots; 6.7 m/s)
Visibility: 6 miles ( 9 km)
Ceiling: at least 12,000 feet AGL
Clouds: scattered clouds at 3000 feet AGL
Weather: no significant weather observed at this time

METAR text: VVNB 181200Z 13014KT 9999 SCT030 25/21 Q1008 NOSIG
Conditions at: VVNB (HANOI/NOIBAI INT, VN) observed 1200 UTC 18 February 2019
Temperature: 25.0°C (77°F)
Dewpoint: 21.0°C (70°F) [RH = 79%]
Pressure (altimeter): 29.76 inches Hg (1008.0 mb)
Winds: from the SE (130 degrees) at 16 MPH (14 knots; 7.2 m/s)
Visibility: 6 or more miles (10+ km)
Ceiling: at least 12,000 feet AGL
Clouds: scattered clouds at 3000 feet AGL
Weather: no significant weather observed at this time

METAR text: VVNB 181130Z 13011KT 9000 FEW030 26/21 Q1008 NOSIG
Conditions at: VVNB (HANOI/NOIBAI INT, VN) observed 1130 UTC 18 February 2019
Temperature: 26.0°C (79°F)
Dewpoint: 21.0°C (70°F) [RH = 74%]
Pressure (altimeter): 29.76 inches Hg (1008.0 mb)
Winds: from the SE (130 degrees) at 13 MPH (11 knots; 5.7 m/s)
Visibility: 6 miles ( 9 km)
Ceiling: at least 12,000 feet AGL
Clouds: few clouds at 3000 feet AGL
Weather: no significant weather observed at this time

METAR text: VVNB 181100Z 12009KT 9000 FEW030 27/21 Q1007 NOSIG
Conditions at: VVNB (HANOI/NOIBAI INT, VN) observed 1100 UTC 18 February 2019
Temperature: 27.0°C (81°F)
Dewpoint: 21.0°C (70°F) [RH = 70%]
Pressure (altimeter): 29.73 inches Hg (1007.0 mb)
Winds: from the ESE (120 degrees) at 10 MPH (9 knots; 4.6 m/s)
Visibility: 6 miles ( 9 km)
Ceiling: at least 12,000 feet AGL
Clouds: few clouds at 3000 feet AGL
Weather: no significant weather observed at this time

METAR text: VVNB 181030Z 10008KT 9000 NSC 27/20 Q1007 NOSIG
Conditions at: VVNB (HANOI/NOIBAI INT, VN) observed 1030 UTC 18 February 2019
Temperature: 27.0°C (81°F)
Dewpoint: 20.0°C (68°F) [RH = 66%]
Pressure (altimeter): 29.73 inches Hg (1007.0 mb)
Winds: from the E (100 degrees) at 9 MPH (8 knots; 4.1 m/s)
Visibility: 6 miles ( 9 km)
Ceiling: at least 12,000 feet AGL
Clouds: sky clear below 12,000 feet AGL
Weather: no significant weather observed at this time

METAR text: VVNB 181000Z 11009KT 7000 FEW027 27/20 Q1007 NOSIG
Conditions at: VVNB (HANOI/NOIBAI INT, VN) observed 1000 UTC 18 February 2019
Temperature: 27.0°C (81°F)
Dewpoint: 20.0°C (68°F) [RH = 66%]
Pressure (altimeter): 29.73 inches Hg (1007.0 mb)
Winds: from the ESE (110 degrees) at 10 MPH (9 knots; 4.6 m/s)
Visibility: 4 miles ( 7 km)
Ceiling: at least 12,000 feet AGL
Clouds: few clouds at 2700 feet AGL
Weather: no significant weather observed at this time

METAR text: VVNB 180930Z 08008KT 6000 FEW030 28/21 Q1006 NOSIG
Conditions at: VVNB (HANOI/NOIBAI INT, VN) observed 0930 UTC 18 February 2019
Temperature: 28.0°C (82°F)
Dewpoint: 21.0°C (70°F) [RH = 66%]
Pressure (altimeter): 29.70 inches Hg (1006.0 mb)
Winds: from the E (80 degrees) at 9 MPH (8 knots; 4.1 m/s)
Visibility: 4 miles ( 6 km)
Ceiling: at least 12,000 feet AGL
Clouds: few clouds at 3000 feet AGL
Weather: no significant weather observed at this time

METAR text: VVNB 180900Z 11008KT 070V130 6000 FEW030 28/20 Q1006 NOSIG
Conditions at: VVNB (HANOI/NOIBAI INT, VN) observed 0900 UTC 18 February 2019
Temperature: 28.0°C (82°F)
Dewpoint: 20.0°C (68°F) [RH = 62%]
Pressure (altimeter): 29.70 inches Hg (1006.0 mb)
Winds: from the ESE (110 degrees) at 9 MPH (8 knots; 4.1 m/s)
Visibility: 4 miles ( 6 km)
Ceiling: at least 12,000 feet AGL
Clouds: few clouds at 3000 feet AGL
Weather: no significant weather observed at this time

METAR text: VVNB 180830Z 13006KT 100V200 7000 FEW030 29/20 Q1006 NOSIG
Conditions at: VVNB (HANOI/NOIBAI INT, VN) observed 0830 UTC 18 February 2019
Temperature: 29.0°C (84°F)
Dewpoint: 20.0°C (68°F) [RH = 58%]
Pressure (altimeter): 29.70 inches Hg (1006.0 mb)
Winds: from the SE (130 degrees) at 7 MPH (6 knots; 3.1 m/s)
Visibility: 4 miles ( 7 km)
Ceiling: at least 12,000 feet AGL
Clouds: few clouds at 3000 feet AGL
Weather: no significant weather observed at this time

METAR text: VVNB 180800Z 09007KT 060V150 7000 FEW032 29/20 Q1007 NOSIG
Conditions at: VVNB (HANOI/NOIBAI INT, VN) observed 0800 UTC 18 February 2019
Temperature: 29.0°C (84°F)
Dewpoint: 20.0°C (68°F) [RH = 58%]
Pressure (altimeter): 29.73 inches Hg (1007.0 mb)
Winds: from the E (90 degrees) at 8 MPH (7 knots; 3.6 m/s)
Visibility: 4 miles ( 7 km)
Ceiling: at least 12,000 feet AGL
Clouds: few clouds at 3200 feet AGL
Weather: no significant weather observed at this time

METAR text: VVNB 180730Z 06005KT 020V100 9000 FEW032 28/20 Q1007 NOSIG
Conditions at: VVNB (HANOI/NOIBAI INT, VN) observed 0730 UTC 18 February 2019
Temperature: 28.0°C (82°F)
Dewpoint: 20.0°C (68°F) [RH = 62%]
Pressure (altimeter): 29.73 inches Hg (1007.0 mb)
Winds: from the ENE (60 degrees) at 6 MPH (5 knots; 2.6 m/s)
Visibility: 6 miles ( 9 km)
Ceiling: at least 12,000 feet AGL
Clouds: few clouds at 3200 feet AGL
Weather: no significant weather observed at this time

METAR text: VVNB 180700Z 06005KT 040V120 CAVOK 27/19 Q1008 NOSIG
Conditions at: VVNB (HANOI/NOIBAI INT, VN) observed 0700 UTC 18 February 2019
Temperature: 27.0°C (81°F)
Dewpoint: 19.0°C (66°F) [RH = 62%]
Pressure (altimeter): 29.76 inches Hg (1008.0 mb)
Winds: from the ENE (60 degrees) at 6 MPH (5 knots; 2.6 m/s)
Visibility: 6 or more miles (10+ km)
Ceiling: ceiling and visibility are OK
Clouds: unknown
Weather: no significant weather observed at this time

METAR text: VVNB 180630Z VRB04KT 9000 NSC 27/19 Q1009 NOSIG
Conditions at: VVNB (HANOI/NOIBAI INT, VN) observed 0630 UTC 18 February 2019
Temperature: 27.0°C (81°F)
Dewpoint: 19.0°C (66°F) [RH = 62%]
Pressure (altimeter): 29.79 inches Hg (1009.0 mb)
Winds: variable direction winds at 5 MPH (4 knots; 2.1 m/s)
Visibility: 6 miles ( 9 km)
Ceiling: at least 12,000 feet AGL
Clouds: sky clear below 12,000 feet AGL
Weather: no significant weather observed at this time

METAR text: VVNB 180600Z VRB04KT CAVOK 26/19 Q1009 NOSIG
Conditions at: VVNB (HANOI/NOIBAI INT, VN) observed 0600 UTC 18 February 2019
Temperature: 26.0°C (79°F)
Dewpoint: 19.0°C (66°F) [RH = 65%]
Pressure (altimeter): 29.79 inches Hg (1009.0 mb)
Winds: variable direction winds at 5 MPH (4 knots; 2.1 m/s)
Visibility: 6 or more miles (10+ km)
Ceiling: ceiling and visibility are OK
Clouds: unknown
Weather: no significant weather observed at this time

METAR text: VVNB 180530Z VRB03KT CAVOK 25/19 Q1010 NOSIG
Conditions at: VVNB (HANOI/NOIBAI INT, VN) observed 0530 UTC 18 February 2019
Temperature: 25.0°C (77°F)
Dewpoint: 19.0°C (66°F) [RH = 69%]
Pressure (altimeter): 29.82 inches Hg (1010.0 mb)
Winds: variable direction winds at 3 MPH (3 knots; 1.5 m/s)
Visibility: 6 or more miles (10+ km)
Ceiling: ceiling and visibility are OK
Clouds: unknown
Weather: no significant weather observed at this time

METAR text: VVNB 180500Z 34004KT 280V020 CAVOK 25/19 Q1011 NOSIG
Conditions at: VVNB (HANOI/NOIBAI INT, VN) observed 0500 UTC 18 February 2019
Temperature: 25.0°C (77°F)
Dewpoint: 19.0°C (66°F) [RH = 69%]
Pressure (altimeter): 29.85 inches Hg (1011.0 mb)
Winds: from the NNW (340 degrees) at 5 MPH (4 knots; 2.1 m/s)
Visibility: 6 or more miles (10+ km)
Ceiling: ceiling and visibility are OK
Clouds: unknown
Weather: no significant weather observed at this time

METAR text: VVNB 180430Z 33005KT 280V010 CAVOK 24/19 Q1011 NOSIG
Conditions at: VVNB (HANOI/NOIBAI INT, VN) observed 0430 UTC 18 February 2019
Temperature: 24.0°C (75°F)
Dewpoint: 19.0°C (66°F) [RH = 74%]
Pressure (altimeter): 29.85 inches Hg (1011.0 mb)
Winds: from the NNW (330 degrees) at 6 MPH (5 knots; 2.6 m/s)
Visibility: 6 or more miles (10+ km)
Ceiling: ceiling and visibility are OK
Clouds: unknown
Weather: no significant weather observed at this time

METAR text: VVNB 180400Z 04003KT 320V120 CAVOK 25/21 Q1011 NOSIG
Conditions at: VVNB (HANOI/NOIBAI INT, VN) observed 0400 UTC 18 February 2019
Temperature: 25.0°C (77°F)
Dewpoint: 21.0°C (70°F) [RH = 79%]
Pressure (altimeter): 29.85 inches Hg (1011.0 mb)
Winds: from the NE (40 degrees) at 3 MPH (3 knots; 1.5 m/s)
Visibility: 6 or more miles (10+ km)
Ceiling: ceiling and visibility are OK
Clouds: unknown
Weather: no significant weather observed at this time

METAR text: VVNB 180330Z 33003KT 290V020 9999 SCT026 23/21 Q1012 NOSIG
Conditions at: VVNB (HANOI/NOIBAI INT, VN) observed 0330 UTC 18 February 2019
Temperature: 23.0°C (73°F)
Dewpoint: 21.0°C (70°F) [RH = 89%]
Pressure (altimeter): 29.88 inches Hg (1012.0 mb)
Winds: from the NNW (330 degrees) at 3 MPH (3 knots; 1.5 m/s)
Visibility: 6 or more miles (10+ km)
Ceiling: at least 12,000 feet AGL
Clouds: scattered clouds at 2600 feet AGL
Weather: no significant weather observed at this time

METAR text: VVNB 180300Z 07004KT 020V120 9000 FEW030CB BKN040 22/22 Q1012 NOSIG
Conditions at: VVNB (HANOI/NOIBAI INT, VN) observed 0300 UTC 18 February 2019
Temperature: 22.0°C (72°F)
Dewpoint: 22.0°C (72°F) [RH = 100%]
Pressure (altimeter): 29.88 inches Hg (1012.0 mb)
Winds: from the ENE (70 degrees) at 5 MPH (4 knots; 2.1 m/s)
Visibility: 6 miles ( 9 km)
Ceiling: 4000 feet AGL
Clouds: few clouds at 3000 feet AGL
broken clouds at 4000 feet AGL
Weather: no significant weather observed at this time

METAR text: VVNB 180230Z 31010KT 270V350 9999 BKN025 FEW030CB 22/20 Q1013 TEMPO FM0245 TL0330 32017G27KT 3000 +TSRA
Conditions at: VVNB (HANOI/NOIBAI INT, VN) observed 0230 UTC 18 February 2019
Temperature: 22.0°C (72°F)
Dewpoint: 20.0°C (68°F) [RH = 88%]
Pressure (altimeter): 29.91 inches Hg (1013.0 mb)
Winds: from the NW (310 degrees) at 12 MPH (10 knots; 5.1 m/s)
Visibility: 6 or more miles (10+ km)
Ceiling: 2500 feet AGL
Clouds: broken clouds at 2500 feet AGL
few clouds at 3000 feet AGL
Weather: no significant weather observed at this time

METAR text: VVNB 180200Z 32006KT 240V350 8000 FEW030TCU 22/22 Q1012 NOSIG
Conditions at: VVNB (HANOI/NOIBAI INT, VN) observed 0200 UTC 18 February 2019
Temperature: 22.0°C (72°F)
Dewpoint: 22.0°C (72°F) [RH = 100%]
Pressure (altimeter): 29.88 inches Hg (1012.0 mb)
Winds: from the NW (320 degrees) at 7 MPH (6 knots; 3.1 m/s)
Visibility: 5 miles ( 8 km)
Ceiling: at least 12,000 feet AGL
Clouds: few clouds at 3000 feet AGL
Weather: no significant weather observed at this time

METAR text: VVNB 180130Z 19005KT 8000 NSC 21/21 Q1011 NOSIG
Conditions at: VVNB (HANOI/NOIBAI INT, VN) observed 0130 UTC 18 February 2019
Temperature: 21.0°C (70°F)
Dewpoint: 21.0°C (70°F) [RH = 100%]
Pressure (altimeter): 29.85 inches Hg (1011.0 mb)
Winds: from the S (190 degrees) at 6 MPH (5 knots; 2.6 m/s)
Visibility: 5 miles ( 8 km)
Ceiling: at least 12,000 feet AGL
Clouds: sky clear below 12,000 feet AGL
Weather: no significant weather observed at this time

METAR text: VVNB 180100Z 09004KT 050V130 5000 BR NSC 20/20 Q1010 NOSIG
Conditions at: VVNB (HANOI/NOIBAI INT, VN) observed 0100 UTC 18 February 2019
Temperature: 20.0°C (68°F)
Dewpoint: 20.0°C (68°F) [RH = 100%]
Pressure (altimeter): 29.82 inches Hg (1010.0 mb)
Winds: from the E (90 degrees) at 5 MPH (4 knots; 2.1 m/s)
Visibility: 3 miles ( 5 km)
Ceiling: at least 12,000 feet AGL
Clouds: sky clear below 12,000 feet AGL
Weather: BR  (mist)

METAR text: VVNB 180030Z 07007KT 9000 FEW021 FEW030CB SCT090 19/19 Q1010 TEMPO TL0050 4000 RA
Conditions at: VVNB (HANOI/NOIBAI INT, VN) observed 0030 UTC 18 February 2019
Temperature: 19.0°C (66°F)
Dewpoint: 19.0°C (66°F) [RH = 100%]
Pressure (altimeter): 29.82 inches Hg (1010.0 mb)
Winds: from the ENE (70 degrees) at 8 MPH (7 knots; 3.6 m/s)
Visibility: 6 miles ( 9 km)
Ceiling: at least 12,000 feet AGL
Clouds: few clouds at 2100 feet AGL
few clouds at 3000 feet AGL
scattered clouds at 9000 feet AGL
Weather: no significant weather observed at this time

METAR text: VVNB 180000Z VRB03KT 3700 +TSRA FEW021 SCT030CB 19/19 Q1011 BECMG TL0030 8000 NSW
Conditions at: VVNB (HANOI/NOIBAI INT, VN) observed 0000 UTC 18 February 2019
Temperature: 19.0°C (66°F)
Dewpoint: 19.0°C (66°F) [RH = 100%]
Pressure (altimeter): 29.85 inches Hg (1011.0 mb)
Winds: variable direction winds at 3 MPH (3 knots; 1.5 m/s)
Visibility: 2.30 miles (3.70 km)
Ceiling: at least 12,000 feet AGL
Clouds: few clouds at 2100 feet AGL
scattered clouds at 3000 feet AGL
Weather: +TSRA  (heavy rain associated with thunderstorm(s))

METAR text: VVNB 172330Z 32006KT 270V030 8000 FEW021 FEW030CB BKN080 19/19 Q1011 TEMPO FM2345 TL0020 VRB15G25KT 3000 +TSRA
Conditions at: VVNB (HANOI/NOIBAI INT, VN) observed 2330 UTC 17 February 2019
Temperature: 19.0°C (66°F)
Dewpoint: 19.0°C (66°F) [RH = 100%]
Pressure (altimeter): 29.85 inches Hg (1011.0 mb)
Winds: from the NW (320 degrees) at 7 MPH (6 knots; 3.1 m/s)
Visibility: 5 miles ( 8 km)
Ceiling: 8000 feet AGL
Clouds: few clouds at 2100 feet AGL
few clouds at 3000 feet AGL
broken clouds at 8000 feet AGL
Weather: no significant weather observed at this time

METAR text: VVNB 172300Z 09003KT 030V140 CAVOK 19/19 Q1009 NOSIG
Conditions at: VVNB (HANOI/NOIBAI INT, VN) observed 2300 UTC 17 February 2019
Temperature: 19.0°C (66°F)
Dewpoint: 19.0°C (66°F) [RH = 100%]
Pressure (altimeter): 29.79 inches Hg (1009.0 mb)
Winds: from the E (90 degrees) at 3 MPH (3 knots; 1.5 m/s)
Visibility: 6 or more miles (10+ km)
Ceiling: ceiling and visibility are OK
Clouds: unknown
Weather: no significant weather observed at this time

METAR text: VVNB 172230Z 04005KT CAVOK 19/19 Q1008 NOSIG
Conditions at: VVNB (HANOI/NOIBAI INT, VN) observed 2230 UTC 17 February 2019
Temperature: 19.0°C (66°F)
Dewpoint: 19.0°C (66°F) [RH = 100%]
Pressure (altimeter): 29.76 inches Hg (1008.0 mb)
Winds: from the NE (40 degrees) at 6 MPH (5 knots; 2.6 m/s)
Visibility: 6 or more miles (10+ km)
Ceiling: ceiling and visibility are OK
Clouds: unknown
Weather: no significant weather observed at this time

METAR text: VVNB 172200Z 06005KT 9999 FEW030CB 19/19 Q1007 NOSIG
Conditions at: VVNB (HANOI/NOIBAI INT, VN) observed 2200 UTC 17 February 2019
Temperature: 19.0°C (66°F)
Dewpoint: 19.0°C (66°F) [RH = 100%]
Pressure (altimeter): 29.73 inches Hg (1007.0 mb)
Winds: from the ENE (60 degrees) at 6 MPH (5 knots; 2.6 m/s)
Visibility: 6 or more miles (10+ km)
Ceiling: at least 12,000 feet AGL
Clouds: few clouds at 3000 feet AGL
Weather: no significant weather observed at this time

METAR text: VVNB 172130Z 10009KT 9999 -RA FEW030CB 19/19 Q1007 NOSIG
Conditions at: VVNB (HANOI/NOIBAI INT, VN) observed 2130 UTC 17 February 2019
Temperature: 19.0°C (66°F)
Dewpoint: 19.0°C (66°F) [RH = 100%]
Pressure (altimeter): 29.73 inches Hg (1007.0 mb)
Winds: from the E (100 degrees) at 10 MPH (9 knots; 4.6 m/s)
Visibility: 6 or more miles (10+ km)
Ceiling: at least 12,000 feet AGL
Clouds: few clouds at 3000 feet AGL
Weather: -RA  (light rain)

METAR text: VVNB 172100Z 15005KT 110V180 9999 FEW030CB 18/18 Q1009 NOSIG
Conditions at: VVNB (HANOI/NOIBAI INT, VN) observed 2100 UTC 17 February 2019
Temperature: 18.0°C (64°F)
Dewpoint: 18.0°C (64°F) [RH = 100%]
Pressure (altimeter): 29.79 inches Hg (1009.0 mb)
Winds: from the SSE (150 degrees) at 6 MPH (5 knots; 2.6 m/s)
Visibility: 6 or more miles (10+ km)
Ceiling: at least 12,000 feet AGL
Clouds: few clouds at 3000 feet AGL
Weather: no significant weather observed at this time

METAR text: VVNB 172030Z 11003KT 070V150 9999 FEW018 FEW030CB 18/18 Q1009 NOSIG
Conditions at: VVNB (HANOI/NOIBAI INT, VN) observed 2030 UTC 17 February 2019
Temperature: 18.0°C (64°F)
Dewpoint: 18.0°C (64°F) [RH = 100%]
Pressure (altimeter): 29.79 inches Hg (1009.0 mb)
Winds: from the ESE (110 degrees) at 3 MPH (3 knots; 1.5 m/s)
Visibility: 6 or more miles (10+ km)
Ceiling: at least 12,000 feet AGL
Clouds: few clouds at 1800 feet AGL
few clouds at 3000 feet AGL
Weather: no significant weather observed at this time

METAR text: VVNB 172000Z 09004KT 020V110 9999 -RA FEW015 FEW030CB 18/18 Q1008 NOSIG
Conditions at: VVNB (HANOI/NOIBAI INT, VN) observed 2000 UTC 17 February 2019
Temperature: 18.0°C (64°F)
Dewpoint: 18.0°C (64°F) [RH = 100%]
Pressure (altimeter): 29.76 inches Hg (1008.0 mb)
Winds: from the E (90 degrees) at 5 MPH (4 knots; 2.1 m/s)
Visibility: 6 or more miles (10+ km)
Ceiling: at least 12,000 feet AGL
Clouds: few clouds at 1500 feet AGL
few clouds at 3000 feet AGL
Weather: -RA  (light rain)

METAR text: VVNB 171930Z 30010KT 250V340 8000 TSRA SCT008 BKN012 SCT030CB 18/18 Q1010 BECMG TL2000 NSW
Conditions at: VVNB (HANOI/NOIBAI INT, VN) observed 1930 UTC 17 February 2019
Temperature: 18.0°C (64°F)
Dewpoint: 18.0°C (64°F) [RH = 100%]
Pressure (altimeter): 29.82 inches Hg (1010.0 mb)
Winds: from the WNW (300 degrees) at 12 MPH (10 knots; 5.1 m/s)
Visibility: 5 miles ( 8 km)
Ceiling: 1200 feet AGL
Clouds: scattered clouds at 800 feet AGL
broken clouds at 1200 feet AGL
scattered clouds at 3000 feet AGL
Weather: TSRA  (rain associated with thunderstorm(s))

METAR text: VVNB 171900Z 10006KT 5000 BR FEW008 SCT030CB 22/22 Q1008 TEMPO FM1915 TL2000 VRB15G25KT 3000 +TSRA
Conditions at: VVNB (HANOI/NOIBAI INT, VN) observed 1900 UTC 17 February 2019
Temperature: 22.0°C (72°F)
Dewpoint: 22.0°C (72°F) [RH = 100%]
Pressure (altimeter): 29.76 inches Hg (1008.0 mb)
Winds: from the E (100 degrees) at 7 MPH (6 knots; 3.1 m/s)
Visibility: 3 miles ( 5 km)
Ceiling: at least 12,000 feet AGL
Clouds: few clouds at 800 feet AGL
scattered clouds at 3000 feet AGL
Weather: BR  (mist)

METAR text: VVNB 171830Z 07006KT 6000 SCT008 FEW030CB 21/21 Q1009 NOSIG
Conditions at: VVNB (HANOI/NOIBAI INT, VN) observed 1830 UTC 17 February 2019
Temperature: 21.0°C (70°F)
Dewpoint: 21.0°C (70°F) [RH = 100%]
Pressure (altimeter): 29.79 inches Hg (1009.0 mb)
Winds: from the ENE (70 degrees) at 7 MPH (6 knots; 3.1 m/s)
Visibility: 4 miles ( 6 km)
Ceiling: at least 12,000 feet AGL
Clouds: scattered clouds at 800 feet AGL
few clouds at 3000 feet AGL
Weather: no significant weather observed at this time

METAR text: VVNB 171800Z 08007KT 6000 BKN007 21/21 Q1009 NOSIG
Conditions at: VVNB (HANOI/NOIBAI INT, VN) observed 1800 UTC 17 February 2019
Temperature: 21.0°C (70°F)
Dewpoint: 21.0°C (70°F) [RH = 100%]
Pressure (altimeter): 29.79 inches Hg (1009.0 mb)
Winds: from the E (80 degrees) at 8 MPH (7 knots; 3.6 m/s)
Visibility: 4 miles ( 6 km)
Ceiling: 700 feet AGL
Clouds: broken clouds at 700 feet AGL
Weather: no significant weather observed at this time

METAR text: VVNB 171730Z 11007KT 060V140 6000 BKN006 22/22 Q1010 NOSIG
Conditions at: VVNB (HANOI/NOIBAI INT, VN) observed 1730 UTC 17 February 2019
Temperature: 22.0°C (72°F)
Dewpoint: 22.0°C (72°F) [RH = 100%]
Pressure (altimeter): 29.82 inches Hg (1010.0 mb)
Winds: from the ESE (110 degrees) at 8 MPH (7 knots; 3.6 m/s)
Visibility: 4 miles ( 6 km)
Ceiling: 600 feet AGL
Clouds: broken clouds at 600 feet AGL
Weather: no significant weather observed at this time

METAR text: VVNB 171700Z 14014KT 8000 BKN006 22/22 Q1009 NOSIG
Conditions at: VVNB (HANOI/NOIBAI INT, VN) observed 1700 UTC 17 February 2019
Temperature: 22.0°C (72°F)
Dewpoint: 22.0°C (72°F) [RH = 100%]
Pressure (altimeter): 29.79 inches Hg (1009.0 mb)
Winds: from the SE (140 degrees) at 16 MPH (14 knots; 7.2 m/s)
Visibility: 5 miles ( 8 km)
Ceiling: 600 feet AGL
Clouds: broken clouds at 600 feet AGL
Weather: no significant weather observed at this time

METAR text: VVNB 171630Z 15009KT 8000 -RA BKN006 FEW030CB 22/22 Q1010 NOSIG
Conditions at: VVNB (HANOI/NOIBAI INT, VN) observed 1630 UTC 17 February 2019
Temperature: 22.0°C (72°F)
Dewpoint: 22.0°C (72°F) [RH = 100%]
Pressure (altimeter): 29.82 inches Hg (1010.0 mb)
Winds: from the SSE (150 degrees) at 10 MPH (9 knots; 4.6 m/s)
Visibility: 5 miles ( 8 km)
Ceiling: 600 feet AGL
Clouds: broken clouds at 600 feet AGL
few clouds at 3000 feet AGL
Weather: -RA  (light rain)

Forecast for: VVNB (HANOI/NOIBAI INT, VN)
Text: TAF VVNB 182300Z 1900/1924 12008KT 6000 SCT012
Forecast period: 0000 to 1800 UTC 19 February 2019
Forecast type: FROM: standard forecast or significant change
Winds: from the ESE (120 degrees) at 9 MPH (8 knots; 4.1 m/s)
Visibility: 4 miles (6 km)
Ceiling: at least 12,000 feet AGL
Clouds: scattered clouds at 1200 feet AGL
Weather: no significant weather forecast for this period
Text: BECMG 1918/1919 3500 BR
Forecast period: 1800 UTC 19 February 2019 to 0000 UTC 20 February 2019
Forecast type: BECOMING: Conditions expected to become as follows by 1900 UTC 19 February 2019
Winds: from the ESE (120 degrees) at 9 MPH (8 knots; 4.1 m/s)
Visibility: 2.17 miles (3.49 km)
Ceiling: at least 12,000 feet AGL
Clouds: scattered clouds at 1200 feet AGL
Weather: BR  (mist)